Time;durP1;ratioP1;P1;durP2;ratioP2;P2;SDS_P1;SDS_P2;PMS_P1;PMS_P2;Temp;Humidity;BMP_temperature;BMP_pressure;BME280_temperature;BME280_humidity;BME280_pressure;Samples;Min_cycle;Max_cycle;Signal;HPM_P1;HPM_P2
2021/12/26 00:03:05;;;;;;;9.73;6.35;;;;;;;-1.15;100.00;97696.56;10451598;28;20092;-77
2021/12/26 00:08:06;;;;;;;10.70;6.80;;;;;;;-1.00;100.00;97703.69;10420328;28;20061;-78
2021/12/26 00:13:06;;;;;;;10.70;6.28;;;;;;;-1.01;100.00;97701.31;10414742;28;20053;-77
2021/12/26 00:18:09;;;;;;;9.93;6.05;;;;;;;-1.09;100.00;97689.47;10414119;28;20092;-78
2021/12/26 00:23:12;;;;;;;11.73;6.78;;;;;;;-0.98;100.00;97695.53;10447964;28;20110;-78
2021/12/26 00:28:12;;;;;;;10.63;6.35;;;;;;;-1.09;100.00;97697.38;10417075;28;20531;-78
2021/12/26 00:33:13;;;;;;;11.88;6.22;;;;;;;-1.09;100.00;97709.75;10430955;28;20056;-77
2021/12/26 00:38:15;;;;;;;9.10;5.40;;;;;;;-1.00;100.00;97701.06;10421740;28;20381;-77
2021/12/26 00:43:16;;;;;;;11.30;6.37;;;;;;;-1.07;100.00;97697.88;10438675;28;20166;-77
2021/12/26 00:48:20;;;;;;;10.45;6.13;;;;;;;-0.97;100.00;97710.28;10450258;28;20068;-79
2021/12/26 00:53:22;;;;;;;8.93;5.93;;;;;;;-1.04;100.00;97720.28;10456261;28;20103;-77
2021/12/26 00:58:23;;;;;;;10.50;5.75;;;;;;;-1.11;100.00;97723.16;10445665;28;20496;-79
2021/12/26 01:03:24;;;;;;;10.70;6.20;;;;;;;-1.12;100.00;97724.19;10467183;28;20104;-80
2021/12/26 01:08:30;;;;;;;9.83;6.13;;;;;;;-1.03;100.00;97712.09;10456102;28;20060;-77
2021/12/26 01:13:38;;;;;;;10.57;6.53;;;;;;;-0.87;100.00;97724.25;10467172;28;20108;-78
2021/12/26 01:19:29;;;;;;;8.60;5.78;;;;;;;-0.93;100.00;97719.22;10471832;28;20044;-80
2021/12/26 01:24:29;;;;;;;11.98;6.40;;;;;;;-0.98;100.00;97719.22;10470144;28;20040;-78
2021/12/26 01:29:34;;;;;;;10.98;6.22;;;;;;;-1.04;100.00;97715.00;10486819;28;20033;-80
2021/12/26 01:34:35;;;;;;;12.82;6.45;;;;;;;-1.12;100.00;97723.41;10474754;28;20057;-78
2021/12/26 01:40:04;;;;;;;12.48;6.93;;;;;;;-1.20;100.00;97714.19;10474090;28;20390;-79
2021/12/26 01:45:12;;;;;;;11.63;6.53;;;;;;;-1.18;100.00;97723.41;10436328;28;20207;-78
2021/12/26 01:50:40;;;;;;;11.95;6.93;;;;;;;-1.10;100.00;97722.09;10434428;28;20059;-77
2021/12/26 01:55:45;;;;;;;13.10;6.30;;;;;;;-1.07;100.00;97726.84;10435020;28;20068;-80
2021/12/26 02:01:09;;;;;;;12.15;6.88;;;;;;;-1.10;100.00;97735.25;10420385;28;20076;-79
2021/12/26 02:06:10;;;;;;;13.48;6.18;;;;;;;-1.14;100.00;97718.41;10423756;28;20317;-78
2021/12/26 02:11:23;;;;;;;11.15;6.78;;;;;;;-1.08;100.00;97724.50;10451276;28;20056;-77
2021/12/26 02:16:25;;;;;;;10.35;5.88;;;;;;;-1.20;100.00;97725.50;10452035;28;20428;-77
2021/12/26 02:21:52;;;;;;;10.77;6.18;;;;;;;-1.19;100.00;97726.28;10453196;28;21466;-77
2021/12/26 02:32:06;;;;;;;12.60;6.85;;;;;;;-1.27;100.00;97732.88;10458848;28;20571;-79
2021/12/26 02:37:07;;;;;;;15.90;7.53;;;;;;;-1.21;100.00;97729.19;10471783;28;20076;-78
2021/12/26 02:42:09;;;;;;;12.98;6.88;;;;;;;-1.18;100.00;97733.94;10461907;28;20116;-77
2021/12/26 02:47:11;;;;;;;12.18;7.07;;;;;;;-1.18;100.00;97736.59;10473730;28;20052;-78
2021/12/26 02:52:13;;;;;;;12.95;6.65;;;;;;;-1.16;100.00;97729.22;10441918;28;20053;-80
2021/12/26 02:57:13;;;;;;;13.85;7.18;;;;;;;-1.23;100.00;97723.41;10459466;28;20065;-77
2021/12/26 03:02:15;;;;;;;12.27;6.72;;;;;;;-1.19;100.00;97713.94;10415129;28;20547;-77
2021/12/26 03:07:16;;;;;;;11.95;6.93;;;;;;;-1.20;100.00;97714.19;10450417;28;20476;-77
2021/12/26 03:12:17;;;;;;;12.20;6.95;;;;;;;-1.15;100.00;97711.56;10443370;28;20396;-77
2021/12/26 03:17:18;;;;;;;15.23;8.02;;;;;;;-1.27;100.00;97705.75;10420503;28;20470;-78
2021/12/26 03:22:19;;;;;;;14.20;7.15;;;;;;;-1.32;100.00;97700.47;10423160;28;20053;-77
2021/12/26 03:27:19;;;;;;;14.35;7.28;;;;;;;-1.45;100.00;97702.56;10427009;28;20063;-78
2021/12/26 03:32:20;;;;;;;13.73;7.22;;;;;;;-1.35;100.00;97716.78;10428198;28;20056;-77
2021/12/26 03:37:22;;;;;;;14.43;7.30;;;;;;;-1.37;100.00;97722.31;10429243;28;20053;-77
2021/12/26 03:42:23;;;;;;;12.60;7.07;;;;;;;-1.26;100.00;97709.97;10426523;28;20049;-78
2021/12/26 03:47:25;;;;;;;14.27;7.40;;;;;;;-1.34;100.00;97706.00;10409920;28;20495;-77
2021/12/26 03:52:30;;;;;;;15.75;7.50;;;;;;;-1.30;100.00;97708.88;10411433;28;20056;-76
2021/12/26 03:57:31;;;;;;;15.55;7.72;;;;;;;-1.30;100.00;97708.88;10420516;28;20103;-77
2021/12/26 04:02:33;;;;;;;14.13;7.43;;;;;;;-1.26;100.00;97712.59;10444565;28;20504;-77
2021/12/26 04:07:44;;;;;;;17.40;9.15;;;;;;;-1.25;100.00;97719.44;10447932;28;20056;-79
2021/12/26 04:12:48;;;;;;;14.57;8.50;;;;;;;-1.23;100.00;97710.22;10470378;28;20033;-82
2021/12/26 04:17:54;;;;;;;14.75;8.18;;;;;;;-1.20;100.00;97712.34;10477334;28;20041;-78
2021/12/26 04:22:56;;;;;;;13.57;7.72;;;;;;;-1.22;100.00;97713.66;10444372;28;20409;-78
2021/12/26 04:27:58;;;;;;;15.17;7.87;;;;;;;-1.21;100.00;97710.75;10425702;28;20049;-78
2021/12/26 04:33:01;;;;;;;15.60;7.70;;;;;;;-1.09;100.00;97718.44;10432141;28;20283;-77
2021/12/26 04:38:03;;;;;;;16.27;8.45;;;;;;;-0.92;100.00;97728.69;10455481;28;20040;-79
2021/12/26 04:43:03;;;;;;;14.15;7.45;;;;;;;-1.10;100.00;97716.03;10450107;28;20100;-78
2021/12/26 04:48:20;;;;;;;16.15;8.27;;;;;;;-1.16;100.00;97718.69;10431504;28;20172;-78
2021/12/26 04:53:21;;;;;;;16.58;8.15;;;;;;;-1.15;100.00;97730.00;10416695;28;20162;-79
2021/12/26 04:58:21;;;;;;;13.75;8.35;;;;;;;-1.01;100.00;97725.00;10429105;28;20057;-78
2021/12/26 05:03:22;;;;;;;14.90;8.55;;;;;;;-0.98;100.00;97730.56;10418493;28;20057;-78
2021/12/26 05:08:25;;;;;;;14.63;8.73;;;;;;;-0.99;100.00;97736.88;10448563;28;20053;-79
2021/12/26 05:13:25;;;;;;;15.95;8.38;;;;;;;-0.99;100.00;97731.63;10397255;28;20744;-80
2021/12/26 05:18:26;;;;;;;16.30;8.27;;;;;;;-0.98;100.00;97729.75;10448045;28;20155;-78
2021/12/26 05:23:31;;;;;;;15.20;8.07;;;;;;;-0.97;100.00;97732.13;10435560;28;20108;-80
2021/12/26 05:28:35;;;;;;;15.17;8.50;;;;;;;-0.91;100.00;97725.03;10434899;28;20504;-77
2021/12/26 05:33:37;;;;;;;16.90;8.77;;;;;;;-1.02;100.00;97724.22;10436320;28;20322;-76
2021/12/26 05:38:38;;;;;;;18.75;8.50;;;;;;;-0.96;100.00;97717.91;10407044;28;20049;-78
2021/12/26 05:43:38;;;;;;;15.23;8.95;;;;;;;-1.01;100.00;97725.78;10441095;28;20060;-78
2021/12/26 05:48:39;;;;;;;15.93;8.52;;;;;;;-0.94;100.00;97717.66;10476119;28;20063;-78
2021/12/26 05:53:50;;;;;;;16.88;8.95;;;;;;;-0.99;100.00;97710.53;10475088;28;20063;-76
2021/12/26 05:58:52;;;;;;;14.43;8.15;;;;;;;-1.02;100.00;97707.63;10456703;28;20559;-79
2021/12/26 06:03:52;;;;;;;16.23;8.85;;;;;;;-1.01;100.00;97717.88;10434169;28;20089;-79
2021/12/26 06:08:53;;;;;;;17.20;9.43;;;;;;;-0.88;100.00;97722.66;10413763;28;20488;-77
2021/12/26 06:13:54;;;;;;;19.33;9.65;;;;;;;-0.80;100.00;97725.84;10442712;28;20049;-77
2021/12/26 06:18:57;;;;;;;18.10;9.50;;;;;;;-0.93;100.00;97722.66;10429781;28;20063;-79
2021/12/26 06:24:35;;;;;;;19.38;9.80;;;;;;;-0.84;100.00;97717.66;10437427;28;20044;-79
2021/12/26 06:29:58;;;;;;;20.25;10.25;;;;;;;-0.90;100.00;97722.16;10436281;28;20079;-80
2021/12/26 06:35:24;;;;;;;18.10;9.30;;;;;;;-0.81;100.00;97726.91;10441842;28;20045;-78
2021/12/26 06:40:44;;;;;;;16.92;8.98;;;;;;;-0.85;100.00;97723.97;10456033;28;20056;-79
2021/12/26 06:46:04;;;;;;;17.05;9.18;;;;;;;-0.84;100.00;97722.13;10449789;28;20053;-78
2021/12/26 06:51:23;;;;;;;19.73;10.88;;;;;;;-0.71;100.00;97734.81;10464168;28;20083;-79
2021/12/26 06:56:24;;;;;;;14.95;8.88;;;;;;;-0.66;100.00;97740.06;10424756;28;20049;-77
2021/12/26 07:01:25;;;;;;;20.02;9.90;;;;;;;-0.82;100.00;97731.38;10452294;28;20041;-79
2021/12/26 07:06:27;;;;;;;18.17;9.30;;;;;;;-0.86;100.00;97722.41;10429705;28;20064;-80
2021/12/26 07:11:33;;;;;;;16.98;9.30;;;;;;;-0.83;100.00;97728.97;10437446;28;20084;-79
2021/12/26 07:16:35;;;;;;;18.48;9.45;;;;;;;-0.76;100.00;97748.75;10451178;28;20040;-79
2021/12/26 07:21:40;;;;;;;19.35;10.07;;;;;;;-0.76;100.00;97756.66;10429969;28;20049;-78
2021/12/26 07:26:46;;;;;;;18.75;10.23;;;;;;;-0.64;100.00;97764.28;10435132;28;20091;-78
2021/12/26 07:32:08;;;;;;;18.17;9.70;;;;;;;-0.63;100.00;97760.63;10456991;28;20115;-79
2021/12/26 07:37:10;;;;;;;21.23;10.10;;;;;;;-0.67;100.00;97756.94;10430926;28;20504;-77
2021/12/26 07:42:16;;;;;;;21.90;10.60;;;;;;;-0.60;100.00;97762.72;10416935;28;20049;-77
2021/12/26 07:47:36;;;;;;;21.30;10.43;;;;;;;-0.56;100.00;97771.69;10427604;28;20049;-79
2021/12/26 07:52:40;;;;;;;20.50;11.18;;;;;;;-0.50;100.00;97777.75;10431884;28;20061;-82
2021/12/26 07:58:02;;;;;;;18.87;10.23;;;;;;;-0.55;100.00;97762.72;10457324;28;20032;-80
2021/12/26 08:03:22;;;;;;;21.38;10.95;;;;;;;-0.51;100.00;97776.97;10461495;28;20061;-81
2021/12/26 08:08:42;;;;;;;21.60;10.93;;;;;;;-0.65;100.00;97786.44;10463771;28;20040;-81
2021/12/26 08:14:17;;;;;;;20.23;10.07;;;;;;;-0.61;100.00;97787.50;10461642;28;20053;-81
2021/12/26 08:19:23;;;;;;;24.15;11.50;;;;;;;-0.66;100.00;97790.13;10428856;28;20116;-80
2021/12/26 08:24:26;;;;;;;25.55;12.05;;;;;;;-0.59;100.00;97798.56;10446724;28;20045;-82
2021/12/26 08:29:27;;;;;;;24.98;12.57;;;;;;;-0.69;100.00;97796.72;10466719;28;20118;-80
2021/12/26 08:34:30;;;;;;;23.45;12.32;;;;;;;-0.67;100.00;97791.19;10466055;28;20053;-83
2021/12/26 08:39:34;;;;;;;24.92;12.18;;;;;;;-0.60;100.00;97792.50;10432498;28;20040;-79
2021/12/26 08:44:36;;;;;;;23.15;12.32;;;;;;;-0.48;100.00;97802.00;10464137;28;20044;-78
2021/12/26 08:49:37;;;;;;;22.65;11.25;;;;;;;-0.45;100.00;97798.84;10468363;28;20064;-81
2021/12/26 08:54:39;;;;;;;20.88;11.07;;;;;;;-0.36;100.00;97789.38;10466351;28;20124;-77
2021/12/26 08:59:41;;;;;;;24.00;12.10;;;;;;;-0.28;100.00;97808.06;10461767;28;20096;-80
2021/12/26 09:04:45;;;;;;;23.48;12.25;;;;;;;-0.23;100.00;97806.50;10485278;28;20056;-80
2021/12/26 09:09:53;;;;;;;20.58;11.32;;;;;;;-0.36;100.00;97808.63;10483319;28;20055;-80
2021/12/26 09:14:55;;;;;;;21.65;13.27;;;;;;;-0.43;100.00;97797.53;10448722;28;20057;-81
2021/12/26 09:19:57;;;;;;;;;;;;;;;-0.20;100.00;97805.97;10461497;28;20112;-77
2021/12/26 09:24:57;;;;;;;24.92;12.55;;;;;;;-0.22;100.00;97813.34;10464393;28;19944;-79
2021/12/26 09:29:58;;;;;;;21.90;11.65;;;;;;;-0.19;100.00;97818.09;10464460;28;20053;-78
2021/12/26 09:34:59;;;;;;;21.65;11.43;;;;;;;0.04;100.00;97819.41;10460767;28;20104;-78
2021/12/26 09:40:01;;;;;;;23.17;12.20;;;;;;;-0.14;100.00;97810.19;10486141;28;20420;-77
2021/12/26 09:45:06;;;;;;;23.03;11.67;;;;;;;0.12;100.00;97814.38;10440356;28;20128;-79
2021/12/26 09:50:10;;;;;;;23.48;12.23;;;;;;;0.17;100.00;97821.50;10454364;28;20056;-79
2021/12/26 09:55:12;;;;;;;23.88;12.40;;;;;;;0.25;100.00;97815.66;10488474;28;20068;-78
2021/12/26 10:00:20;;;;;;;22.25;12.20;;;;;;;0.34;100.00;97810.63;10460542;28;20140;-80
2021/12/26 10:05:27;;;;;;;21.30;11.32;;;;;;;0.25;100.00;97794.56;10466813;28;20056;-79
2021/12/26 10:10:28;;;;;;;22.70;12.00;;;;;;;0.30;100.00;97791.13;10489151;28;20056;-80
2021/12/26 10:15:49;;;;;;;22.92;12.00;;;;;;;0.43;100.00;97786.06;10475744;28;20044;-80
2021/12/26 10:20:50;;;;;;;19.48;10.82;;;;;;;0.28;100.00;97775.56;10458513;28;20057;-80
2021/12/26 10:25:51;;;;;;;23.67;12.18;;;;;;;0.45;100.00;97776.00;10452632;28;20492;-79
2021/12/26 10:30:52;;;;;;;22.13;12.18;;;;;;;0.53;100.00;97782.59;10456361;28;20048;-81
2021/12/26 10:36:06;;;;;;;19.52;10.80;;;;;;;0.52;100.00;97775.72;10490603;28;20053;-82
2021/12/26 10:41:23;;;;;;;19.13;11.02;;;;;;;0.33;100.00;97766.81;10418841;28;20088;-79
2021/12/26 10:46:25;;;;;;;23.08;11.88;;;;;;;0.49;100.00;97763.88;10460362;28;20476;-81
2021/12/26 10:51:34;;;;;;;21.60;11.20;;;;;;;0.49;100.00;97765.72;10447948;28;20053;-80
2021/12/26 10:56:35;;;;;;;22.73;11.90;;;;;;;0.30;100.00;97757.59;10426701;28;20077;-78
2021/12/26 11:01:42;;;;;;;21.77;12.93;;;;;;;0.49;100.00;97755.16;10455221;28;20068;-78
2021/12/26 11:07:08;;;;;;;22.77;12.13;;;;;;;0.47;100.00;97755.44;10453828;28;20634;-78
2021/12/26 11:12:09;;;;;;;20.67;11.43;;;;;;;0.37;100.00;97752.84;10452896;28;20060;-80
2021/12/26 11:17:31;;;;;;;25.58;11.85;;;;;;;0.56;100.00;97735.34;10458139;28;20060;-79
2021/12/26 11:22:33;;;;;;;19.30;11.73;;;;;;;0.49;100.00;97728.75;10478291;28;20405;-78
2021/12/26 11:27:34;;;;;;;19.00;11.57;;;;;;;0.28;100.00;97741.25;10427338;28;20049;-78
2021/12/26 11:32:35;;;;;;;22.95;11.40;;;;;;;0.42;100.00;97744.88;10468715;28;20124;-78
2021/12/26 11:37:38;;;;;;;24.17;13.05;;;;;;;0.41;100.00;97735.38;10462448;28;20060;-80
2021/12/26 11:43:18;;;;;;;22.92;11.70;;;;;;;0.47;100.00;97726.41;10436520;28;20522;-79
2021/12/26 11:49:08;;;;;;;20.95;11.05;;;;;;;0.39;100.00;97710.34;10450507;28;20056;-78
2021/12/26 11:54:47;;;;;;;22.10;11.85;;;;;;;0.61;100.00;97707.31;10452843;28;20109;-79
2021/12/26 12:00:03;;;;;;;;;;;;;;;0.54;100.00;97705.75;10452967;28;20508;-81
2021/12/26 12:05:43;;;;;;;20.92;11.00;;;;;;;0.70;100.00;97710.97;10472458;28;19996;-80
2021/12/26 12:11:06;;;;;;;20.98;11.85;;;;;;;0.67;100.00;97709.66;10455250;28;20041;-80
2021/12/26 12:16:29;;;;;;;21.40;12.27;;;;;;;0.50;100.00;97712.66;10474364;28;20153;-81
2021/12/26 12:21:51;;;;;;;19.95;11.27;;;;;;;0.65;100.00;97697.81;10452127;28;20048;-82
2021/12/26 12:27:06;;;;;;;22.20;12.15;;;;;;;0.81;100.00;97694.78;10479579;28;20128;-81
2021/12/26 12:32:11;;;;;;;20.00;11.68;;;;;;;0.83;100.00;97691.88;10461995;28;20033;-81
2021/12/26 12:37:30;;;;;;;20.30;11.27;;;;;;;0.83;100.00;97689.25;10452511;28;20053;-80
2021/12/26 12:42:31;;;;;;;21.55;12.25;;;;;;;0.78;100.00;97682.13;10432477;28;20056;-80
2021/12/26 12:47:33;;;;;;;17.88;10.35;;;;;;;0.84;100.00;97683.69;10472376;28;20068;-82
2021/12/26 12:52:46;;;;;;;21.75;11.50;;;;;;;0.98;100.00;97688.34;10434636;28;20053;-78
2021/12/26 12:57:55;;;;;;;19.63;10.93;;;;;;;1.05;100.00;97680.91;10477377;28;20080;-82
2021/12/26 13:03:00;;;;;;;21.48;11.25;;;;;;;1.04;100.00;97677.47;10480464;28;20072;-78
2021/12/26 13:08:08;;;;;;;18.95;10.43;;;;;;;1.02;100.00;97674.31;10443968;28;20069;-82
2021/12/26 13:13:16;;;;;;;21.02;10.85;;;;;;;0.87;100.00;97686.84;10453876;28;20072;-79
2021/12/26 13:18:26;;;;;;;16.75;10.18;;;;;;;0.89;100.00;97674.13;10472975;28;20041;-80
2021/12/26 13:23:31;;;;;;;18.75;10.68;;;;;;;0.85;100.00;97664.13;10443432;28;20122;-81
2021/12/26 13:28:34;;;;;;;18.70;10.93;;;;;;;0.95;100.00;97667.75;10488558;28;20059;-79
2021/12/26 13:33:40;;;;;;;21.23;10.45;;;;;;;0.85;100.00;97679.97;10449134;28;20441;-78
2021/12/26 13:38:41;;;;;;;21.42;11.93;;;;;;;0.69;100.00;97683.75;10459594;28;20063;-79
2021/12/26 13:43:45;;;;;;;17.77;10.73;;;;;;;0.80;100.00;97676.56;10424924;28;20059;-78
2021/12/26 13:48:56;;;;;;;17.52;10.68;;;;;;;0.74;100.00;97675.81;10419812;28;20085;-79
2021/12/26 13:54:07;;;;;;;19.48;10.95;;;;;;;0.70;100.00;97687.97;10431978;28;20048;-75
2021/12/26 13:59:08;;;;;;;23.40;11.70;;;;;;;0.69;100.00;97694.34;10449430;28;20060;-77
2021/12/26 14:04:10;;;;;;;17.48;10.77;;;;;;;0.73;100.00;97690.09;10434571;28;20477;-76
2021/12/26 14:09:11;;;;;;;18.55;10.93;;;;;;;0.66;100.00;97683.53;10437363;28;20053;-77
2021/12/26 14:14:11;;;;;;;19.33;10.77;;;;;;;0.57;100.00;97681.47;10450595;28;20161;-80
2021/12/26 14:19:13;;;;;;;19.48;11.55;;;;;;;0.60;100.00;97697.81;10454302;28;20077;-79
2021/12/26 14:24:23;;;;;;;18.65;10.50;;;;;;;0.50;100.00;97696.03;10432794;28;20052;-80
2021/12/26 14:29:27;;;;;;;18.55;11.05;;;;;;;0.56;100.00;97687.81;10462280;28;20133;-81
2021/12/26 14:34:39;;;;;;;20.70;11.15;;;;;;;0.47;100.00;97688.66;10450324;28;20057;-79
2021/12/26 14:39:42;;;;;;;19.50;12.15;;;;;;;0.54;100.00;97691.75;10426962;28;20084;-80
2021/12/26 14:45:02;;;;;;;19.65;11.80;;;;;;;0.50;100.00;97702.09;10432340;28;20132;-81
2021/12/26 14:50:15;;;;;;;20.25;11.40;;;;;;;0.46;100.00;97700.28;10438415;28;20068;-79
2021/12/26 14:55:32;;;;;;;18.02;11.13;;;;;;;0.53;100.00;97701.53;10469691;28;20107;-80
2021/12/26 15:00:45;;;;;;;18.58;10.75;;;;;;;0.52;100.00;97702.59;10427530;28;20156;-80
2021/12/26 15:05:52;;;;;;;18.27;11.13;;;;;;;0.47;100.00;97704.50;10477333;28;20044;-80
2021/12/26 15:10:55;;;;;;;20.52;10.45;;;;;;;0.40;100.00;97698.72;10449762;28;20066;-82
2021/12/26 15:15:55;;;;;;;17.63;10.38;;;;;;;0.43;100.00;97712.16;10462950;28;20048;-78
2021/12/26 15:21:07;;;;;;;19.65;11.35;;;;;;;0.34;100.00;97707.69;10438986;28;20080;-78
2021/12/26 15:26:28;;;;;;;19.40;11.23;;;;;;;0.31;100.00;97711.69;10457668;28;20112;-81
2021/12/26 15:31:50;;;;;;;18.83;11.45;;;;;;;0.30;100.00;97711.94;10458767;28;20056;-82
2021/12/26 15:36:51;;;;;;;19.42;12.10;;;;;;;0.24;100.00;97706.69;10414634;28;20068;-79
2021/12/26 15:41:55;;;;;;;18.17;11.02;;;;;;;0.24;100.00;97711.97;10454282;28;20117;-79
2021/12/26 15:46:57;;;;;;;21.08;11.10;;;;;;;0.24;100.00;97713.81;10441347;28;20052;-79
2021/12/26 15:52:03;;;;;;;19.80;12.07;;;;;;;0.15;100.00;97718.06;10467624;28;20060;-81
2021/12/26 15:57:15;;;;;;;20.00;11.23;;;;;;;0.18;100.00;97710.41;10461239;28;20083;-82
2021/12/26 16:02:18;;;;;;;18.60;11.05;;;;;;;0.09;100.00;97719.94;10433729;28;20057;-79
2021/12/26 16:07:20;;;;;;;19.60;11.05;;;;;;;0.11;100.00;97717.81;10449686;28;20060;-79
2021/12/26 16:12:34;;;;;;;17.48;10.48;;;;;;;0.07;100.00;97719.41;10420897;28;20079;-81
2021/12/26 16:17:38;;;;;;;18.77;10.25;;;;;;;0.03;100.00;97715.72;10446598;28;20057;-80
2021/12/26 16:22:41;;;;;;;17.77;10.45;;;;;;;0.12;100.00;97714.13;10458453;28;20053;-80
2021/12/26 16:27:47;;;;;;;18.92;11.27;;;;;;;0.12;100.00;97723.88;10449749;28;20053;-81
2021/12/26 16:32:50;;;;;;;18.20;10.98;;;;;;;0.11;100.00;97709.13;10413520;28;20072;-81
2021/12/26 16:37:52;;;;;;;18.73;12.02;;;;;;;0.04;100.00;97712.03;10442438;28;20103;-82
2021/12/26 16:43:00;;;;;;;21.23;11.82;;;;;;;0.05;100.00;97712.81;10442035;28;20049;-81
2021/12/26 16:48:13;;;;;;;17.63;10.65;;;;;;;0.02;100.00;97713.38;10444878;28;20057;-83
2021/12/26 16:53:14;;;;;;;19.98;11.35;;;;;;;0.04;100.00;97717.31;10449485;28;20200;-83
2021/12/26 16:58:16;;;;;;;17.63;10.63;;;;;;;0.08;100.00;97718.34;10443210;28;20151;-79
2021/12/26 17:03:17;;;;;;;20.50;12.13;;;;;;;0.13;100.00;97720.19;10462245;28;20052;-80
2021/12/26 17:08:18;;;;;;;20.42;12.45;;;;;;;0.04;100.00;97717.31;10446329;28;20057;-79
2021/12/26 17:13:22;;;;;;;21.58;12.10;;;;;;;0.02;100.00;97710.72;10475776;28;20033;-80
2021/12/26 17:18:24;;;;;;;20.27;10.93;;;;;;;0.07;100.00;97703.56;10485410;28;20062;-80
2021/12/26 17:23:25;;;;;;;21.42;11.93;;;;;;;-0.06;100.00;97712.06;10466883;28;20288;-82
2021/12/26 17:28:28;;;;;;;18.63;11.35;;;;;;;0.04;100.00;97714.66;10444378;28;20121;-79
2021/12/26 17:33:33;;;;;;;18.27;11.27;;;;;;;0.06;100.00;97709.91;10440838;28;20052;-79
2021/12/26 17:38:35;;;;;;;20.35;11.45;;;;;;;0.08;100.00;97715.69;10450741;28;20050;-79
2021/12/26 17:43:37;;;;;;;19.25;11.35;;;;;;;0.11;100.00;97709.91;10475096;28;20052;-82
2021/12/26 17:48:41;;;;;;;25.83;14.27;;;;;;;0.08;100.00;97702.50;10447916;28;20057;-80
2021/12/26 17:53:43;;;;;;;21.65;11.50;;;;;;;-0.02;100.00;97710.47;10472889;28;20060;-79
2021/12/26 17:58:45;;;;;;;20.15;11.80;;;;;;;0.03;100.00;97704.38;10445843;28;20091;-81
2021/12/26 18:03:51;;;;;;;21.85;11.13;;;;;;;0.01;100.00;97702.03;10430417;28;20088;-83
2021/12/26 18:08:53;;;;;;;21.20;10.95;;;;;;;0.00;100.00;97692.53;10487018;28;20037;-81
2021/12/26 18:13:54;;;;;;;22.60;11.73;;;;;;;-0.01;100.00;97683.81;10442141;28;20148;-78
2021/12/26 18:18:56;;;;;;;20.63;12.13;;;;;;;0.06;100.00;97703.84;10436424;28;20069;-79
2021/12/26 18:23:58;;;;;;;20.23;11.85;;;;;;;0.11;100.00;97699.34;10449096;28;20077;-79
2021/12/26 18:28:59;;;;;;;19.80;11.43;;;;;;;0.11;100.00;97699.34;10438994;28;20056;-79
2021/12/26 18:34:01;;;;;;;20.15;12.02;;;;;;;0.17;100.00;97687.69;10439581;28;20056;-81
2021/12/26 18:39:11;;;;;;;19.67;11.68;;;;;;;0.09;100.00;97690.91;10406775;28;20049;-80
2021/12/26 18:44:13;;;;;;;19.60;12.30;;;;;;;0.09;100.00;97690.09;10463275;28;20045;-79
2021/12/26 18:49:20;;;;;;;18.92;11.07;;;;;;;0.08;100.00;97686.69;10443338;28;20079;-79
2021/12/26 18:54:22;;;;;;;20.73;11.18;;;;;;;0.11;100.00;97690.66;10433623;28;20575;-79
2021/12/26 18:59:24;;;;;;;19.25;11.20;;;;;;;0.15;100.00;97687.19;10445194;28;20053;-83
2021/12/26 19:04:26;;;;;;;21.67;11.70;;;;;;;0.11;100.00;97686.16;10457267;28;20095;-82
2021/12/26 19:09:28;;;;;;;20.33;12.23;;;;;;;0.21;100.00;97687.97;10456855;28;20045;-79
2021/12/26 19:14:38;;;;;;;18.73;11.15;;;;;;;0.16;100.00;97687.97;10450719;28;20041;-79
2021/12/26 19:19:41;;;;;;;21.25;11.35;;;;;;;0.17;100.00;97685.06;10481647;28;20056;-78
2021/12/26 19:24:42;;;;;;;20.85;10.85;;;;;;;0.21;100.00;97677.41;10452906;28;20056;-80
2021/12/26 19:29:43;;;;;;;19.88;11.70;;;;;;;0.17;100.00;97677.16;10452851;28;20056;-80
2021/12/26 19:34:46;;;;;;;20.88;11.27;;;;;;;0.11;100.00;97678.25;10454559;28;20052;-79
2021/12/26 19:39:47;;;;;;;;;;;;;;;0.14;100.00;97677.69;10473787;28;20126;-82
2021/12/26 19:44:50;;;;;;;18.60;11.07;;;;;;;0.18;100.00;97670.03;10469849;28;19928;-81
2021/12/26 19:49:53;;;;;;;17.67;10.95;;;;;;;0.24;100.00;97671.59;10487938;28;20116;-78
2021/12/26 19:54:56;;;;;;;18.13;10.85;;;;;;;0.24;100.00;97668.94;10464334;28;20263;-81
2021/12/26 20:00:06;;;;;;;19.45;11.60;;;;;;;0.25;100.00;97658.13;10423851;28;20056;-80
2021/12/26 20:05:11;;;;;;;23.10;12.27;;;;;;;0.24;100.00;97664.47;10426151;28;20060;-79
2021/12/26 20:10:14;;;;;;;19.70;11.60;;;;;;;0.24;100.00;97659.19;10453718;28;20060;-80
2021/12/26 20:15:21;;;;;;;16.60;10.25;;;;;;;0.28;100.00;97670.00;10468825;28;20087;-80
2021/12/26 20:20:45;;;;;;;19.45;11.52;;;;;;;0.30;100.00;97656.53;10478812;23;20152;-80
2021/12/26 20:25:52;;;;;;;19.10;10.18;;;;;;;0.31;100.00;97655.47;10410879;28;20116;-78
2021/12/26 20:30:54;;;;;;;17.60;10.43;;;;;;;0.37;100.00;97657.03;10408472;28;20056;-82
2021/12/26 20:35:57;;;;;;;18.60;10.30;;;;;;;0.38;100.00;97667.31;10406131;28;20141;-80
2021/12/26 20:40:58;;;;;;;15.10;9.10;;;;;;;0.46;100.00;97655.41;10403578;28;20060;-80
2021/12/26 20:46:00;;;;;;;16.73;10.70;;;;;;;0.41;100.00;97644.84;10367971;28;20072;-79
2021/12/26 20:51:05;;;;;;;15.32;9.57;;;;;;;0.43;100.00;97655.94;10396735;28;20057;-80
2021/12/26 20:56:06;;;;;;;17.23;10.30;;;;;;;0.43;100.00;97656.72;10422513;28;20061;-78
2021/12/26 21:01:10;;;;;;;19.38;11.20;;;;;;;0.57;100.00;97657.69;10438583;28;20172;-79
2021/12/26 21:06:12;;;;;;;18.48;9.80;;;;;;;0.50;100.00;97653.78;10425113;28;20061;-80
2021/12/26 21:11:14;;;;;;;17.48;11.32;;;;;;;0.49;100.00;97654.84;10413296;28;20129;-79
2021/12/26 21:16:16;;;;;;;19.33;10.73;;;;;;;0.39;100.00;97639.06;10404748;28;20083;-78
2021/12/26 21:21:16;;;;;;;19.92;10.35;;;;;;;0.39;100.00;97631.16;10433578;28;20525;-78
2021/12/26 21:26:18;;;;;;;16.83;9.52;;;;;;;0.40;100.00;97635.34;10436264;28;20080;-81
2021/12/26 21:31:18;;;;;;;17.13;9.98;;;;;;;0.43;100.00;97626.88;10417004;28;20057;-77
2021/12/26 21:36:19;;;;;;;17.55;10.32;;;;;;;0.48;100.00;97632.16;10390813;28;20046;-79
2021/12/26 21:41:20;;;;;;;21.77;10.68;;;;;;;0.47;100.00;97609.47;10392260;28;20081;-77
2021/12/26 21:46:26;;;;;;;15.18;9.57;;;;;;;0.44;100.00;97607.34;10399474;28;20064;-78
2021/12/26 21:51:33;;;;;;;17.15;10.77;;;;;;;0.34;100.00;97602.91;10419130;28;20042;-78
2021/12/26 21:56:41;;;;;;;17.95;10.75;;;;;;;0.36;100.00;97603.44;10393038;28;20481;-77
2021/12/26 22:01:44;;;;;;;17.58;10.45;;;;;;;0.36;100.00;97603.44;10410142;28;20069;-79
2021/12/26 22:06:45;;;;;;;18.15;10.60;;;;;;;0.38;100.00;97614.53;10403873;28;20119;-77
2021/12/26 22:11:45;;;;;;;19.80;11.80;;;;;;;0.41;100.00;97621.09;10402921;28;20084;-80
2021/12/26 22:16:49;;;;;;;18.92;11.30;;;;;;;0.42;100.00;97620.03;10382223;28;20060;-79
2021/12/26 22:21:50;;;;;;;19.23;10.77;;;;;;;0.36;100.00;97613.19;10416932;28;20056;-77
2021/12/26 22:26:51;;;;;;;17.83;11.25;;;;;;;0.36;100.00;97613.97;10393322;28;20073;-80
2021/12/26 22:31:51;;;;;;;20.58;11.60;;;;;;;0.37;100.00;97614.81;10418109;28;20125;-79
2021/12/26 22:36:57;;;;;;;17.90;11.60;;;;;;;0.37;100.00;97607.66;10394292;28;20042;-81
2021/12/26 22:41:58;;;;;;;20.75;11.23;;;;;;;0.36;100.00;97611.34;10425036;28;20111;-79
2021/12/26 22:46:59;;;;;;;19.63;11.55;;;;;;;0.38;100.00;97616.38;10418184;28;20064;-78
2021/12/26 22:51:59;;;;;;;19.60;11.95;;;;;;;0.43;100.00;97601.28;10367295;28;20531;-78
2021/12/26 22:57:01;;;;;;;17.73;11.55;;;;;;;0.47;100.00;97590.97;10390886;28;20497;-78
2021/12/26 23:02:03;;;;;;;23.75;12.00;;;;;;;0.41;100.00;97581.50;10407039;28;20322;-78
2021/12/26 23:07:05;;;;;;;19.92;11.77;;;;;;;0.42;100.00;97575.16;10387885;28;20056;-79
2021/12/26 23:12:07;;;;;;;19.75;11.77;;;;;;;0.38;100.00;97580.22;10394812;28;20045;-78
2021/12/26 23:17:08;;;;;;;23.55;11.70;;;;;;;0.37;100.00;97583.13;10398947;28;20053;-79